Time;durP1;ratioP1;P1;durP2;ratioP2;P2;SDS_P1;SDS_P2;PMS_P1;PMS_P2;Temp;Humidity;BMP_temperature;BMP_pressure;BME280_temperature;BME280_humidity;BME280_pressure;Samples;Min_cycle;Max_cycle;Signal;HPM_P1;HPM_P2
2021/09/12 00:00:50;;;;;;;6.10;5.70;;;18.10;99.90;;;;;;10458827;28;20803;-84
2021/09/12 00:05:52;;;;;;;5.53;5.13;;;18.10;99.90;;;;;;10450056;28;20199;-84
2021/09/12 00:10:55;;;;;;;4.50;4.20;;;18.10;99.90;;;;;;10448781;28;20213;-84
2021/09/12 00:15:58;;;;;;;4.97;4.57;;;18.10;99.90;;;;;;10463994;28;20220;-85
2021/09/12 00:21:00;;;;;;;4.63;4.30;;;18.00;99.90;;;;;;10468277;23;20289;-81
2021/09/12 00:26:02;;;;;;;4.60;4.20;;;18.00;99.90;;;;;;10299994;28;20239;-81
2021/09/12 00:31:06;;;;;;;5.13;4.63;;;18.00;99.90;;;;;;10299308;28;20219;-81
2021/09/12 00:36:08;;;;;;;4.63;4.20;;;18.00;99.90;;;;;;10262202;29;20227;-81
2021/09/12 00:41:10;;;;;;;4.53;4.23;;;17.90;99.90;;;;;;10241301;28;20617;-82
2021/09/12 00:46:14;;;;;;;5.80;5.30;;;17.80;99.90;;;;;;10241656;29;20625;-81
2021/09/12 00:51:16;;;;;;;4.27;3.97;;;17.80;99.90;;;;;;10261312;28;20217;-81
2021/09/12 00:56:19;;;;;;;4.80;4.50;;;17.80;99.90;;;;;;10259471;29;20229;-81
2021/09/12 01:01:22;;;;;;;4.90;4.60;;;17.80;99.90;;;;;;10254905;28;20315;-81
2021/09/12 01:06:24;;;;;;;5.23;4.80;;;17.70;99.90;;;;;;10258369;29;20193;-81
2021/09/12 01:11:30;;;;;;;4.57;4.20;;;17.70;99.90;;;;;;10260860;28;20288;-81
2021/09/12 01:16:33;;;;;;;5.23;4.83;;;17.70;99.90;;;;;;10243501;29;20251;-81
2021/09/12 01:21:35;;;;;;;4.77;4.47;;;17.60;99.90;;;;;;10265960;28;20240;-81
2021/09/12 01:26:39;;;;;;;5.20;4.80;;;17.50;99.90;;;;;;10262257;29;20197;-81
2021/09/12 01:31:41;;;;;;;4.63;4.33;;;17.50;99.90;;;;;;10247552;28;20221;-81
2021/09/12 01:36:44;;;;;;;4.77;4.47;;;17.50;99.90;;;;;;10243785;29;20319;-81
2021/09/12 01:41:49;;;;;;;5.77;4.60;;;17.50;99.90;;;;;;10259288;28;20311;-81
2021/09/12 01:46:52;;;;;;;5.10;4.70;;;17.50;99.90;;;;;;10260137;29;20193;-81
2021/09/12 01:51:54;;;;;;;4.80;4.40;;;17.40;99.90;;;;;;10256259;28;20320;-83
2021/09/12 01:56:57;;;;;;;4.60;4.27;;;17.40;99.90;;;;;;10254674;29;20881;-84
2021/09/12 02:02:00;;;;;;;4.70;4.30;;;17.40;99.90;;;;;;10256247;28;20575;-84
2021/09/12 02:07:02;;;;;;;5.00;4.40;;;17.40;99.90;;;;;;10254951;28;20243;-84
2021/09/12 02:12:06;;;;;;;5.60;4.70;;;17.30;99.90;;;;;;10256675;28;20225;-84
2021/09/12 02:17:08;;;;;;;4.50;4.20;;;17.20;99.90;;;;;;10236535;29;20702;-84
2021/09/12 02:22:11;;;;;;;4.47;4.17;;;17.20;99.90;;;;;;10263147;28;20701;-84
2021/09/12 02:27:15;;;;;;;4.17;3.87;;;17.20;99.90;;;;;;10250786;28;20209;-83
2021/09/12 02:32:17;;;;;;;5.70;4.47;;;17.20;99.90;;;;;;10251046;28;20224;-83
2021/09/12 02:37:19;;;;;;;5.10;4.70;;;17.20;99.90;;;;;;10249936;29;20288;-83
2021/09/12 02:42:22;;;;;;;4.77;4.37;;;17.20;99.90;;;;;;10232596;28;20337;-84
2021/09/12 02:47:24;;;;;;;4.90;4.60;;;17.20;99.90;;;;;;10251907;28;20653;-84
2021/09/12 02:52:26;;;;;;;5.60;5.20;;;17.10;99.90;;;;;;10249074;28;20231;-84
2021/09/12 02:57:30;;;;;;;4.90;4.60;;;17.10;99.90;;;;;;10250358;29;20201;-84
2021/09/12 03:02:32;;;;;;;4.60;4.40;;;17.10;99.90;;;;;;10254345;28;20221;-83
2021/09/12 03:07:34;;;;;;;5.70;5.20;;;17.10;99.90;;;;;;10253725;29;20665;-84
2021/09/12 03:12:38;;;;;;;5.37;4.97;;;17.00;99.90;;;;;;10255940;28;20244;-84
2021/09/12 03:17:40;;;;;;;5.23;4.83;;;17.00;99.90;;;;;;10254635;28;20288;-84
2021/09/12 03:22:42;;;;;;;4.70;4.40;;;16.90;99.90;;;;;;10255393;28;20228;-84
2021/09/12 03:27:45;;;;;;;4.77;4.37;;;16.90;99.90;;;;;;10254272;29;20623;-84
2021/09/12 03:32:47;;;;;;;6.37;4.80;;;16.90;99.90;;;;;;10235508;28;20274;-84
2021/09/12 03:37:50;;;;;;;5.07;4.77;;;16.80;99.90;;;;;;10251448;29;20201;-84
2021/09/12 03:42:53;;;;;;;5.00;4.70;;;16.80;99.90;;;;;;10248607;28;20270;-83
2021/09/12 03:47:55;;;;;;;4.80;4.50;;;16.80;99.90;;;;;;10231756;29;20216;-84
2021/09/12 03:52:57;;;;;;;4.63;4.33;;;16.80;99.90;;;;;;10249265;28;20321;-84
2021/09/12 03:58:01;;;;;;;5.10;4.80;;;16.80;99.90;;;;;;10253504;28;20299;-84
2021/09/12 04:03:03;;;;;;;4.77;4.50;;;16.70;99.90;;;;;;10251186;28;20723;-83
2021/09/12 04:08:05;;;;;;;4.97;4.67;;;16.70;99.90;;;;;;10250646;29;20220;-83
2021/09/12 04:13:09;;;;;;;5.10;4.70;;;16.70;99.90;;;;;;10242102;28;20229;-83
2021/09/12 04:18:11;;;;;;;5.33;4.83;;;16.70;99.90;;;;;;10457930;28;20190;-84
2021/09/12 04:23:13;;;;;;;5.57;5.17;;;16.70;99.90;;;;;;10459870;28;20225;-84
2021/09/12 04:28:16;;;;;;;4.90;4.60;;;16.70;99.90;;;;;;10457433;28;20208;-83
2021/09/12 04:33:18;;;;;;;4.90;4.60;;;16.70;99.90;;;;;;10454735;28;20231;-83
2021/09/12 04:38:21;;;;;;;5.13;4.83;;;16.70;99.90;;;;;;10462956;28;20224;-83
2021/09/12 04:43:24;;;;;;;5.20;4.80;;;16.60;99.90;;;;;;10449907;28;20217;-83
2021/09/12 04:48:26;;;;;;;5.20;4.60;;;16.60;99.90;;;;;;10464609;28;20240;-84
2021/09/12 04:53:28;;;;;;;5.23;4.77;;;16.60;99.90;;;;;;10466579;28;20712;-83
2021/09/12 04:58:32;;;;;;;4.93;4.63;;;16.50;99.90;;;;;;10466285;28;20652;-83
2021/09/12 05:03:34;;;;;;;5.87;5.37;;;16.50;99.90;;;;;;10448107;28;20224;-84
2021/09/12 05:08:36;;;;;;;5.33;4.83;;;16.50;99.90;;;;;;10466266;28;20197;-83
2021/09/12 05:13:40;;;;;;;5.30;4.93;;;16.50;99.90;;;;;;10466884;28;20220;-84
2021/09/12 05:18:42;;;;;;;5.03;4.73;;;16.40;99.90;;;;;;10448884;28;20197;-84
2021/09/12 05:23:44;;;;;;;4.80;4.40;;;16.50;99.90;;;;;;10462613;28;20292;-84
2021/09/12 05:28:47;;;;;;;5.57;5.00;;;16.40;99.90;;;;;;10464330;28;20568;-84
2021/09/12 05:33:49;;;;;;;4.97;4.67;;;16.40;99.90;;;;;;10463257;28;20236;-84
2021/09/12 05:38:51;;;;;;;7.07;5.50;;;16.40;99.90;;;;;;10465416;28;20569;-84
2021/09/12 05:43:55;;;;;;;5.40;5.00;;;16.40;99.90;;;;;;10465003;28;20217;-83
2021/09/12 05:48:57;;;;;;;5.60;5.20;;;16.40;99.90;;;;;;10464414;28;20201;-84
2021/09/12 05:53:59;;;;;;;4.83;4.53;;;16.50;99.90;;;;;;10466410;28;20547;-84
2021/09/12 05:59:02;;;;;;;5.00;4.60;;;16.50;99.90;;;;;;10466588;28;20281;-84
2021/09/12 06:04:05;;;;;;;5.10;4.77;;;16.50;99.90;;;;;;10470639;28;20259;-84
2021/09/12 06:09:07;;;;;;;5.47;5.13;;;16.50;99.90;;;;;;10441715;28;20238;-83
2021/09/12 06:14:10;;;;;;;7.40;5.53;;;16.60;99.90;;;;;;10456494;28;20213;-84
2021/09/12 06:19:13;;;;;;;5.33;5.00;;;16.60;99.90;;;;;;10403302;28;20217;-84
2021/09/12 06:24:15;;;;;;;5.30;5.00;;;16.70;99.90;;;;;;10322768;22;20326;-84
2021/09/12 06:29:19;;;;;;;5.63;5.33;;;16.70;99.90;;;;;;10396127;28;20204;-84
2021/09/12 06:34:21;;;;;;;6.20;5.70;;;16.70;99.90;;;;;;10322676;28;20338;-84
2021/09/12 06:39:23;;;;;;;7.17;6.30;;;16.70;99.90;;;;;;10326668;28;20199;-84
2021/09/12 06:44:28;;;;;;;6.33;5.93;;;16.80;99.90;;;;;;10326674;28;20212;-84
2021/09/12 06:49:30;;;;;;;7.23;6.73;;;16.90;99.90;;;;;;10326430;28;20287;-83
2021/09/12 06:54:32;;;;;;;8.40;7.47;;;16.90;99.90;;;;;;10309156;28;20253;-83
2021/09/12 06:59:35;;;;;;;8.70;8.07;;;17.00;99.90;;;;;;10327431;28;20273;-85
2021/09/12 07:04:38;;;;;;;8.40;7.80;;;17.00;99.90;;;;;;10309818;28;20309;-84
2021/09/12 07:09:40;;;;;;;7.57;6.97;;;17.10;99.90;;;;;;10325266;28;20200;-84
2021/09/12 07:14:43;;;;;;;7.83;7.13;;;17.10;99.90;;;;;;10308393;28;20243;-84
2021/09/12 07:19:45;;;;;;;7.87;7.27;;;17.20;99.90;;;;;;10308883;28;20249;-84
2021/09/12 07:24:47;;;;;;;7.20;6.70;;;17.30;99.90;;;;;;10324799;28;20293;-84
2021/09/12 07:29:51;;;;;;;8.30;7.37;;;17.30;99.90;;;;;;10325346;28;20258;-84
2021/09/12 07:34:53;;;;;;;7.33;6.83;;;17.40;99.90;;;;;;10326210;28;20306;-84
2021/09/12 07:39:56;;;;;;;8.00;7.40;;;17.50;99.90;;;;;;10325892;28;20215;-84
2021/09/12 07:44:59;;;;;;;7.17;6.60;;;17.50;99.90;;;;;;10324863;28;20286;-86
2021/09/12 07:50:02;;;;;;;7.80;7.20;;;17.60;99.90;;;;;;10310100;28;20242;-84
2021/09/12 07:55:05;;;;;;;7.70;7.10;;;17.70;99.90;;;;;;10309168;28;20262;-86
2021/09/12 08:00:11;;;;;;;6.77;6.27;;;17.90;99.90;;;;;;10309452;28;20298;-85
2021/09/12 08:05:15;;;;;;;9.50;8.53;;;18.00;99.90;;;;;;10324954;28;20219;-85
2021/09/12 08:10:18;;;;;;;7.60;7.00;;;18.10;99.90;;;;;;10328652;28;20223;-85
2021/09/12 08:15:21;;;;;;;8.80;8.00;;;18.20;99.90;;;;;;10314643;28;20333;-86
2021/09/12 08:20:23;;;;;;;7.40;6.80;;;18.30;99.90;;;;;;10331015;28;20248;-85
2021/09/12 08:25:26;;;;;;;8.00;7.27;;;18.40;99.90;;;;;;10314307;28;20756;-86
2021/09/12 08:30:29;;;;;;;7.90;7.23;;;18.50;99.90;;;;;;10331753;28;20253;-86
2021/09/12 08:35:47;;;;;;;8.00;7.40;;;18.60;99.90;;;;;;10532917;28;20295;-85
2021/09/12 08:40:52;;;;;;;7.87;7.30;;;18.70;99.90;;;;;;10527984;28;20230;-85
2021/09/12 08:45:56;;;;;;;6.93;6.53;;;18.80;99.90;;;;;;10542564;28;20215;-85
2021/09/12 08:50:58;;;;;;;6.57;6.17;;;18.90;99.90;;;;;;10525878;28;20667;-84
2021/09/12 08:56:00;;;;;;;6.90;6.47;;;19.00;99.90;;;;;;10474571;28;20227;-86
2021/09/12 09:01:04;;;;;;;6.40;5.83;;;19.10;99.90;;;;;;10313319;28;20568;-85
2021/09/12 09:06:18;;;;;;;6.83;6.33;;;19.20;99.90;;;;;;10314314;28;20235;-85
2021/09/12 09:11:31;;;;;;;6.33;5.93;;;19.20;99.90;;;;;;10329459;28;20207;-85
2021/09/12 09:16:43;;;;;;;6.03;5.53;;;19.30;99.90;;;;;;10329412;28;20227;-85
2021/09/12 09:21:47;;;;;;;5.40;5.10;;;19.40;99.90;;;;;;10309364;28;20373;-84
2021/09/12 09:26:51;;;;;;;6.50;6.10;;;19.40;99.90;;;;;;10312733;28;20227;-86
2021/09/12 09:32:06;;;;;;;5.77;5.47;;;19.60;99.90;;;;;;10328566;28;20219;-85
2021/09/12 09:37:13;;;;;;;7.47;5.70;;;19.80;99.90;;;;;;10329299;28;20624;-85
2021/09/12 09:42:35;;;;;;;4.90;4.60;;;20.00;99.90;;;;;;10312853;28;20226;-85
2021/09/12 09:47:39;;;;;;;4.80;4.40;;;20.20;99.90;;;;;;10327864;28;20199;-85
2021/09/12 09:52:44;;;;;;;4.80;4.60;;;20.50;99.90;;;;;;10329533;28;20212;-84
2021/09/12 09:57:48;;;;;;;4.80;4.50;;;20.90;99.90;;;;;;10311847;28;20227;-85
2021/09/12 10:02:52;;;;;;;4.70;4.30;;;21.20;99.90;;;;;;10328018;28;20230;-84
2021/09/12 10:07:56;;;;;;;5.07;4.77;;;21.40;99.90;;;;;;10361470;28;20223;-85
2021/09/12 10:13:30;;;;;;;4.40;4.10;;;21.30;99.90;;;;;;10331158;28;20713;-85
2021/09/12 10:18:34;;;;;;;4.60;4.30;;;21.20;99.90;;;;;;10310603;28;20234;-85
2021/09/12 10:23:36;;;;;;;4.67;4.37;;;21.00;99.90;;;;;;10326250;28;20314;-85
2021/09/12 10:28:38;;;;;;;4.40;4.00;;;20.90;99.90;;;;;;10311303;28;20804;-84
2021/09/12 10:34:05;;;;;;;4.70;4.40;;;20.80;99.90;;;;;;10311101;28;20387;-85
2021/09/12 10:39:31;;;;;;;3.90;3.70;;;20.70;99.90;;;;;;10412020;28;20277;-85
2021/09/12 10:44:34;;;;;;;4.47;4.07;;;20.70;99.90;;;;;;10311594;28;20224;-85
2021/09/12 10:49:37;;;;;;;4.17;3.80;;;20.70;99.90;;;;;;10329405;28;20203;-85
2021/09/12 10:55:05;;;;;;;4.07;3.87;;;20.60;99.90;;;;;;10310442;28;20640;-84
2021/09/12 11:00:11;;;;;;;3.80;3.60;;;20.70;99.90;;;;;;10329699;28;20286;-85
2021/09/12 11:05:28;;;;;;;3.80;3.60;;;20.60;99.90;;;;;;10327207;28;20345;-84
2021/09/12 11:10:40;;;;;;;3.83;3.63;;;20.60;99.90;;;;;;10394060;28;20553;-84
2021/09/12 11:15:42;;;;;;;3.70;3.50;;;20.60;99.90;;;;;;10308880;28;20605;-85
2021/09/12 11:20:48;;;;;;;3.80;3.43;;;20.60;99.90;;;;;;10308257;28;20199;-85
2021/09/12 11:25:56;;;;;;;3.97;3.77;;;20.70;99.90;;;;;;10307086;28;20288;-85
2021/09/12 11:31:00;;;;;;;3.57;3.37;;;20.70;99.90;;;;;;10307900;28;20261;-85
2021/09/12 11:36:04;;;;;;;4.30;4.00;;;20.70;99.90;;;;;;10324085;28;20242;-85
2021/09/12 11:41:06;;;;;;;4.10;3.90;;;20.80;99.90;;;;;;10395380;28;20206;-84
2021/09/12 11:46:12;;;;;;;4.30;3.90;;;20.80;99.90;;;;;;10314075;28;20725;-84
2021/09/12 11:51:25;;;;;;;3.37;3.17;;;20.80;99.90;;;;;;10317047;28;20294;-84
2021/09/12 11:56:27;;;;;;;4.17;3.87;;;20.80;99.90;;;;;;10315206;28;20211;-84
2021/09/12 12:01:30;;;;;;;4.13;3.83;;;20.80;99.90;;;;;;10331713;28;20294;-83
2021/09/12 12:06:33;;;;;;;4.03;3.83;;;20.80;99.90;;;;;;10315838;28;20199;-85
2021/09/12 12:11:39;;;;;;;4.17;3.87;;;20.80;99.90;;;;;;10331874;28;20216;-85
2021/09/12 12:16:44;;;;;;;4.17;3.90;;;20.80;99.90;;;;;;10485193;28;20571;-83
2021/09/12 12:21:49;;;;;;;3.93;3.60;;;20.80;99.90;;;;;;10564668;22;21044;-83
2021/09/12 12:26:54;;;;;;;3.40;3.20;;;20.90;99.90;;;;;;10467736;28;20648;-83
2021/09/12 12:31:57;;;;;;;3.57;3.33;;;20.90;99.90;;;;;;10467017;28;20216;-83
2021/09/12 12:37:01;;;;;;;3.97;3.77;;;21.00;99.90;;;;;;10466520;28;20212;-82
2021/09/12 12:42:03;;;;;;;4.07;3.87;;;21.00;99.90;;;;;;10466985;28;20232;-83
2021/09/12 12:47:05;;;;;;;3.73;3.43;;;21.00;99.90;;;;;;10465517;28;20768;-83
2021/09/12 12:52:15;;;;;;;3.73;3.53;;;21.10;99.90;;;;;;10466413;28;20227;-83
2021/09/12 12:57:17;;;;;;;4.23;3.83;;;21.10;99.90;;;;;;10465718;28;20753;-83
2021/09/12 13:02:20;;;;;;;3.90;3.70;;;21.00;99.90;;;;;;10466125;28;20588;-82
2021/09/12 13:07:23;;;;;;;4.20;3.80;;;21.10;99.90;;;;;;10501351;28;20246;-83
2021/09/12 13:12:25;;;;;;;3.47;3.30;;;21.20;99.90;;;;;;10483617;28;20236;-83
2021/09/12 13:17:27;;;;;;;3.73;3.43;;;21.30;99.90;;;;;;10499632;28;20278;-83
2021/09/12 13:22:31;;;;;;;3.67;3.47;;;21.50;99.90;;;;;;10481791;28;20595;-82
2021/09/12 13:27:33;;;;;;;3.80;3.57;;;21.60;99.90;;;;;;10464423;28;20197;-83
2021/09/12 13:32:35;;;;;;;4.03;3.77;;;21.60;99.90;;;;;;10465578;28;20220;-82
2021/09/12 13:37:39;;;;;;;4.20;3.90;;;21.60;99.90;;;;;;10467165;28;20750;-83
2021/09/12 13:42:41;;;;;;;4.80;3.60;;;21.60;99.90;;;;;;10484414;28;20223;-83
2021/09/12 13:47:44;;;;;;;3.30;3.10;;;21.60;99.90;;;;;;10483859;28;20196;-83
2021/09/12 13:52:47;;;;;;;3.50;3.30;;;21.60;99.90;;;;;;10466214;28;20278;-83
2021/09/12 13:57:50;;;;;;;6.40;3.73;;;21.60;99.90;;;;;;10466657;28;20789;-82
2021/09/12 14:02:52;;;;;;;4.20;3.47;;;21.60;99.90;;;;;;10483000;28;20216;-82
2021/09/12 14:07:55;;;;;;;4.27;4.07;;;21.50;99.90;;;;;;10481738;28;20552;-82
2021/09/12 14:12:57;;;;;;;5.07;4.77;;;21.50;99.90;;;;;;10465467;28;20583;-82
2021/09/12 14:17:59;;;;;;;4.10;3.80;;;21.50;99.90;;;;;;10483311;28;20666;-82
2021/09/12 14:23:03;;;;;;;4.30;4.00;;;21.50;99.90;;;;;;10457462;28;20676;-82
2021/09/12 14:28:08;;;;;;;3.90;3.70;;;21.50;99.90;;;;;;10438385;28;20292;-82
2021/09/12 14:33:10;;;;;;;3.73;3.53;;;21.50;99.90;;;;;;10437919;28;20276;-81
2021/09/12 14:38:13;;;;;;;4.20;4.00;;;21.50;99.90;;;;;;10438430;28;20252;-82
2021/09/12 14:43:15;;;;;;;3.70;3.40;;;21.50;99.90;;;;;;10440551;28;20700;-81
2021/09/12 14:48:17;;;;;;;6.93;4.47;;;21.50;99.90;;;;;;10439633;28;20203;-82
2021/09/12 14:53:21;;;;;;;3.90;3.60;;;21.80;99.90;;;;;;10423364;28;20256;-82
2021/09/12 14:58:26;;;;;;;3.63;3.43;;;22.00;99.90;;;;;;10440970;28;20225;-82
2021/09/12 15:03:29;;;;;;;3.50;3.30;;;22.00;99.90;;;;;;10423921;28;20286;-82
2021/09/12 15:08:33;;;;;;;4.00;3.60;;;21.90;99.90;;;;;;10458618;28;20185;-82
2021/09/12 15:13:35;;;;;;;3.40;3.17;;;21.80;99.90;;;;;;10440662;28;20586;-82
2021/09/12 15:18:37;;;;;;;3.70;3.50;;;21.80;99.90;;;;;;10439560;28;20225;-82
2021/09/12 15:23:40;;;;;;;3.53;3.33;;;21.80;99.90;;;;;;10421106;28;20611;-82
2021/09/12 15:28:42;;;;;;;3.87;3.57;;;21.70;99.90;;;;;;10453210;28;20227;-82
2021/09/12 15:33:45;;;;;;;3.23;3.03;;;21.60;99.90;;;;;;10433958;28;20248;-82
2021/09/12 15:38:48;;;;;;;3.23;3.00;;;21.60;99.90;;;;;;10433593;28;20667;-82
2021/09/12 15:43:51;;;;;;;3.07;2.87;;;21.60;99.90;;;;;;10417468;28;20271;-82
2021/09/12 15:48:53;;;;;;;3.07;2.97;;;21.60;99.90;;;;;;10434354;28;20581;-82
2021/09/12 15:53:56;;;;;;;3.40;3.30;;;21.60;99.90;;;;;;10452260;28;20221;-82
2021/09/12 15:58:58;;;;;;;3.97;3.67;;;21.60;99.90;;;;;;10435328;28;20223;-82
2021/09/12 16:04:00;;;;;;;3.63;3.43;;;21.60;99.90;;;;;;10451425;28;20223;-82
2021/09/12 16:09:04;;;;;;;3.80;3.60;;;21.50;99.90;;;;;;10434392;28;20224;-82
2021/09/12 16:14:06;;;;;;;3.53;3.33;;;21.40;99.90;;;;;;10417139;28;20231;-82
2021/09/12 16:19:08;;;;;;;3.80;3.60;;;21.30;99.90;;;;;;10434280;28;20700;-82
2021/09/12 16:24:13;;;;;;;4.00;3.70;;;21.30;99.90;;;;;;10396828;28;1123516;-82
2021/09/12 16:29:15;;;;;;;3.63;3.43;;;21.30;99.90;;;;;;10420067;28;20232;-82
2021/09/12 16:34:17;;;;;;;3.80;3.60;;;21.40;99.90;;;;;;10443668;28;20251;-82
2021/09/12 16:39:21;;;;;;;3.53;3.30;;;21.40;99.90;;;;;;10444745;28;20474;-82
2021/09/12 16:44:25;;;;;;;3.50;3.30;;;21.30;99.90;;;;;;10443985;28;20723;-82
2021/09/12 16:49:27;;;;;;;4.37;3.10;;;21.20;99.90;;;;;;10445341;28;20268;-82
2021/09/12 16:54:30;;;;;;;3.37;3.17;;;21.20;99.90;;;;;;10442075;28;20244;-82
2021/09/12 16:59:34;;;;;;;4.20;3.20;;;21.20;99.90;;;;;;10461263;28;20213;-82
2021/09/12 17:04:36;;;;;;;3.33;3.13;;;21.10;99.90;;;;;;10442983;28;20221;-82
2021/09/12 17:09:39;;;;;;;3.13;2.93;;;21.00;99.90;;;;;;10443952;28;20193;-82
2021/09/12 17:14:41;;;;;;;4.93;3.43;;;20.90;99.90;;;;;;10443802;28;20217;-82
2021/09/12 17:19:45;;;;;;;3.87;3.50;;;20.80;99.90;;;;;;10442464;28;20233;-82
2021/09/12 17:24:49;;;;;;;5.07;3.90;;;20.70;99.90;;;;;;10442392;28;20221;-81
2021/09/12 17:29:51;;;;;;;3.53;3.33;;;20.60;99.90;;;;;;10445008;28;20602;-82
2021/09/12 17:34:53;;;;;;;3.80;3.60;;;20.50;99.90;;;;;;10503074;28;20213;-82
2021/09/12 17:39:57;;;;;;;3.97;3.77;;;20.50;99.90;;;;;;10482890;28;20212;-82
2021/09/12 17:44:59;;;;;;;3.83;3.63;;;20.30;99.90;;;;;;10500711;28;20271;-82
2021/09/12 17:50:01;;;;;;;6.90;3.73;;;20.20;99.90;;;;;;10468309;28;20200;-82
2021/09/12 17:55:05;;;;;;;4.60;4.20;;;20.20;99.90;;;;;;10468115;28;20235;-82
2021/09/12 18:00:09;;;;;;;5.20;4.80;;;20.10;99.90;;;;;;10466668;28;20684;-81
2021/09/12 18:05:17;;;;;;;5.40;4.90;;;20.00;99.90;;;;;;10500193;28;20227;-81
2021/09/12 18:10:20;;;;;;;4.97;4.47;;;19.90;99.90;;;;;;10464447;28;20216;-81
2021/09/12 18:15:22;;;;;;;3.80;3.60;;;19.90;99.90;;;;;;10497880;28;20217;-82
2021/09/12 18:20:25;;;;;;;4.47;4.07;;;19.80;99.90;;;;;;10484599;28;20224;-82
2021/09/12 18:25:28;;;;;;;4.63;4.23;;;19.80;99.90;;;;;;10374133;23;20318;-83
2021/09/12 18:30:31;;;;;;;5.43;4.93;;;19.80;99.90;;;;;;10333207;28;20191;-82
2021/09/12 18:35:33;;;;;;;4.53;4.10;;;19.80;99.90;;;;;;10349611;28;20245;-82
2021/09/12 18:40:36;;;;;;;4.70;4.40;;;19.70;99.90;;;;;;10332143;28;20203;-81
2021/09/12 18:45:38;;;;;;;4.17;3.97;;;19.70;99.90;;;;;;10334056;28;20646;-82
2021/09/12 18:50:45;;;;;;;5.30;4.17;;;19.60;99.90;;;;;;10335057;28;20207;-83
2021/09/12 18:55:49;;;;;;;5.00;4.70;;;19.60;99.90;;;;;;10319589;28;20294;-82
2021/09/12 19:00:51;;;;;;;4.10;3.80;;;19.50;99.90;;;;;;10334594;28;20632;-82
2021/09/12 19:05:53;;;;;;;4.70;4.40;;;19.50;99.90;;;;;;10336203;28;20310;-81
2021/09/12 19:10:57;;;;;;;4.50;4.10;;;19.50;99.90;;;;;;10343817;28;20604;-83
2021/09/12 19:15:59;;;;;;;5.03;3.73;;;19.40;99.90;;;;;;10318662;28;20228;-83
2021/09/12 19:21:03;;;;;;;4.60;4.30;;;19.40;99.90;;;;;;10343478;28;20216;-81
2021/09/12 19:26:07;;;;;;;5.17;4.67;;;19.30;99.90;;;;;;10363728;28;20235;-82
2021/09/12 19:31:10;;;;;;;4.43;4.23;;;19.30;99.90;;;;;;10434926;28;20199;-84
2021/09/12 19:36:13;;;;;;;5.00;4.70;;;19.30;99.90;;;;;;10410209;28;20219;-82
2021/09/12 19:41:17;;;;;;;5.00;4.60;;;19.30;99.90;;;;;;10338423;28;20211;-84
2021/09/12 19:46:19;;;;;;;5.43;4.20;;;19.30;99.90;;;;;;10319102;28;20273;-84
2021/09/12 19:51:21;;;;;;;4.57;4.27;;;19.30;99.90;;;;;;10313196;28;20211;-84
2021/09/12 19:56:25;;;;;;;4.60;4.30;;;19.20;99.90;;;;;;10327550;28;20295;-84
2021/09/12 20:01:27;;;;;;;4.73;4.43;;;19.20;99.90;;;;;;10326255;28;20581;-84
2021/09/12 20:06:30;;;;;;;5.20;4.67;;;19.10;99.90;;;;;;10303128;28;20297;-84
2021/09/12 20:11:33;;;;;;;5.17;4.87;;;19.00;99.90;;;;;;10322016;28;20205;-81
2021/09/12 20:16:35;;;;;;;4.20;3.90;;;19.00;99.90;;;;;;10314331;28;20230;-84
2021/09/12 20:21:38;;;;;;;4.87;4.47;;;18.90;99.90;;;;;;10382486;28;20299;-85
2021/09/12 20:26:43;;;;;;;5.60;5.20;;;18.90;99.90;;;;;;10312787;28;20274;-85
2021/09/12 20:31:45;;;;;;;4.43;4.20;;;18.90;99.90;;;;;;10323433;28;20208;-83
2021/09/12 20:36:49;;;;;;;5.07;4.67;;;18.90;99.90;;;;;;10288743;28;20710;-83
2021/09/12 20:41:52;;;;;;;5.17;4.70;;;18.90;99.90;;;;;;10315894;28;20683;-85
2021/09/12 20:46:54;;;;;;;4.70;4.50;;;18.80;99.90;;;;;;10300555;28;20759;-84
2021/09/12 20:51:56;;;;;;;4.57;4.23;;;18.80;99.90;;;;;;10314481;28;20242;-83
2021/09/12 20:57:00;;;;;;;4.80;4.37;;;18.80;99.90;;;;;;10320206;28;20271;-82
2021/09/12 21:02:02;;;;;;;4.97;4.27;;;18.70;99.90;;;;;;10318542;28;20214;-84
2021/09/12 21:07:04;;;;;;;4.50;4.20;;;18.70;99.90;;;;;;10318600;28;20958;-85
2021/09/12 21:12:08;;;;;;;4.93;4.63;;;18.70;99.90;;;;;;10329356;28;20207;-84
2021/09/12 21:17:11;;;;;;;4.47;4.17;;;18.60;99.90;;;;;;10325688;28;20227;-85
2021/09/12 21:22:13;;;;;;;5.00;4.70;;;18.60;99.90;;;;;;10311095;28;20261;-85
2021/09/12 21:27:16;;;;;;;4.80;4.40;;;18.60;99.90;;;;;;10324728;28;20218;-84
2021/09/12 21:32:18;;;;;;;5.20;4.80;;;18.60;99.90;;;;;;10330933;28;20233;-85
2021/09/12 21:37:21;;;;;;;4.93;4.63;;;18.50;99.90;;;;;;10342478;28;20861;-84
2021/09/12 21:42:25;;;;;;;4.70;4.40;;;18.50;99.90;;;;;;10311007;28;20227;-83
2021/09/12 21:47:27;;;;;;;5.53;5.03;;;18.50;99.90;;;;;;10311098;28;20249;-85
2021/09/12 21:52:29;;;;;;;5.27;4.90;;;18.50;99.90;;;;;;10313681;28;20227;-84
2021/09/12 21:57:33;;;;;;;5.80;5.30;;;18.40;99.90;;;;;;10313655;28;20280;-84
2021/09/12 22:02:35;;;;;;;4.93;4.53;;;18.40;99.90;;;;;;10296988;28;20243;-84
2021/09/12 22:07:37;;;;;;;5.90;5.40;;;18.40;99.90;;;;;;10294362;28;20269;-82
2021/09/12 22:12:44;;;;;;;4.70;4.40;;;18.40;99.90;;;;;;10315907;28;20658;-85
2021/09/12 22:17:46;;;;;;;5.13;4.77;;;18.40;99.90;;;;;;10306311;28;20613;-85
2021/09/12 22:22:49;;;;;;;5.70;5.30;;;18.40;99.90;;;;;;10313252;28;20724;-84
2021/09/12 22:27:52;;;;;;;9.00;4.63;;;18.40;99.90;;;;;;10329542;28;20208;-81
2021/09/12 22:32:55;;;;;;;5.00;4.70;;;18.40;99.90;;;;;;10373492;28;20232;-84
2021/09/12 22:37:59;;;;;;;5.30;4.90;;;18.40;99.90;;;;;;10390463;28;20230;-84
2021/09/12 22:43:03;;;;;;;4.77;4.37;;;18.40;99.90;;;;;;10343019;28;20227;-84
2021/09/12 22:48:05;;;;;;;5.10;4.70;;;18.40;99.90;;;;;;10347967;28;20209;-85
2021/09/12 22:53:07;;;;;;;5.10;4.80;;;18.50;99.90;;;;;;10307917;28;20231;-85
2021/09/12 22:58:11;;;;;;;5.20;4.70;;;18.50;99.90;;;;;;10305101;28;20231;-84
2021/09/12 23:03:13;;;;;;;4.73;4.33;;;18.50;99.90;;;;;;10316179;28;20231;-84
2021/09/12 23:08:17;;;;;;;5.00;4.50;;;18.60;99.90;;;;;;10297789;28;20686;-84
2021/09/12 23:13:23;;;;;;;4.33;4.03;;;18.60;99.90;;;;;;10312555;28;20235;-85
2021/09/12 23:18:25;;;;;;;5.23;4.40;;;18.70;99.90;;;;;;10303605;28;20231;-85
2021/09/12 23:23:30;;;;;;;4.60;4.13;;;18.70;99.90;;;;;;10289256;28;20235;-84
2021/09/12 23:28:33;;;;;;;3.80;3.60;;;18.70;99.90;;;;;;10294159;28;20207;-84
2021/09/12 23:33:35;;;;;;;4.00;3.77;;;18.70;99.90;;;;;;10303917;28;20239;-84
2021/09/12 23:38:38;;;;;;;4.33;4.03;;;18.70;99.90;;;;;;10287827;28;20212;-85
2021/09/12 23:43:41;;;;;;;4.00;3.80;;;18.70;99.90;;;;;;10318843;28;20227;-85
2021/09/12 23:48:43;;;;;;;4.83;4.53;;;18.70;99.90;;;;;;10309985;28;20223;-84
2021/09/12 23:53:45;;;;;;;4.00;3.70;;;18.70;99.90;;;;;;10297806;28;20285;-85
2021/09/12 23:58:49;;;;;;;4.40;4.00;;;18.80;99.90;;;;;;10308290;28;20220;-85
